sensor_id;sensor_type;location;lat;lon;timestamp;P1;durP1;ratioP1;P2;durP2;ratioP2
23634;SDS011;11994;51.038;16.974;2022-09-21T00:01:13;10.58;;;4.75;;
23634;SDS011;11994;51.038;16.974;2022-09-21T00:03:52;7.42;;;3.67;;
23634;SDS011;11994;51.038;16.974;2022-09-21T00:06:21;9.23;;;3.90;;
23634;SDS011;11994;51.038;16.974;2022-09-21T00:08:49;5.40;;;3.52;;
23634;SDS011;11994;51.038;16.974;2022-09-21T00:11:36;6.20;;;3.50;;
23634;SDS011;11994;51.038;16.974;2022-09-21T00:13:56;9.28;;;3.65;;
23634;SDS011;11994;51.038;16.974;2022-09-21T00:16:27;6.85;;;4.05;;
23634;SDS011;11994;51.038;16.974;2022-09-21T00:18:53;6.03;;;3.60;;
23634;SDS011;11994;51.038;16.974;2022-09-21T00:21:19;6.72;;;3.47;;
23634;SDS011;11994;51.038;16.974;2022-09-21T00:23:46;8.95;;;3.52;;
23634;SDS011;11994;51.038;16.974;2022-09-21T00:26:16;6.83;;;3.52;;
23634;SDS011;11994;51.038;16.974;2022-09-21T00:28:46;6.15;;;3.52;;
23634;SDS011;11994;51.038;16.974;2022-09-21T00:31:15;6.05;;;3.67;;
23634;SDS011;11994;51.038;16.974;2022-09-21T00:33:42;7.55;;;4.08;;
23634;SDS011;11994;51.038;16.974;2022-09-21T00:36:11;11.55;;;4.10;;
23634;SDS011;11994;51.038;16.974;2022-09-21T00:38:38;9.65;;;4.22;;
23634;SDS011;11994;51.038;16.974;2022-09-21T00:41:05;7.85;;;3.50;;
23634;SDS011;11994;51.038;16.974;2022-09-21T00:43:37;6.65;;;3.40;;
23634;SDS011;11994;51.038;16.974;2022-09-21T00:46:14;4.30;;;2.97;;
23634;SDS011;11994;51.038;16.974;2022-09-21T00:48:52;6.03;;;3.17;;
23634;SDS011;11994;51.038;16.974;2022-09-21T00:51:18;6.03;;;3.62;;
23634;SDS011;11994;51.038;16.974;2022-09-21T00:53:44;8.83;;;4.17;;
23634;SDS011;11994;51.038;16.974;2022-09-21T00:56:15;6.25;;;3.10;;
23634;SDS011;11994;51.038;16.974;2022-09-21T00:58:44;5.15;;;3.62;;
23634;SDS011;11994;51.038;16.974;2022-09-21T01:01:12;7.37;;;4.33;;
23634;SDS011;11994;51.038;16.974;2022-09-21T01:03:43;6.22;;;3.40;;
23634;SDS011;11994;51.038;16.974;2022-09-21T01:06:11;6.72;;;3.10;;
23634;SDS011;11994;51.038;16.974;2022-09-21T01:08:39;5.08;;;3.00;;
23634;SDS011;11994;51.038;16.974;2022-09-21T01:14:06;6.35;;;3.55;;
23634;SDS011;11994;51.038;16.974;2022-09-21T01:16:59;6.53;;;3.70;;
23634;SDS011;11994;51.038;16.974;2022-09-21T01:31:36;10.45;;;3.98;;
23634;SDS011;11994;51.038;16.974;2022-09-21T01:34:13;7.22;;;4.05;;
23634;SDS011;11994;51.038;16.974;2022-09-21T01:36:46;5.87;;;3.67;;
23634;SDS011;11994;51.038;16.974;2022-09-21T01:39:14;7.53;;;3.70;;
23634;SDS011;11994;51.038;16.974;2022-09-21T01:41:44;7.10;;;3.50;;
23634;SDS011;11994;51.038;16.974;2022-09-21T01:44:17;6.92;;;3.87;;
23634;SDS011;11994;51.038;16.974;2022-09-21T01:46:45;7.62;;;3.92;;
23634;SDS011;11994;51.038;16.974;2022-09-21T01:49:14;7.62;;;3.87;;
23634;SDS011;11994;51.038;16.974;2022-09-21T01:51:45;7.85;;;3.60;;
23634;SDS011;11994;51.038;16.974;2022-09-21T01:54:29;7.75;;;3.47;;
23634;SDS011;11994;51.038;16.974;2022-09-21T01:57:16;6.55;;;3.55;;
23634;SDS011;11994;51.038;16.974;2022-09-21T01:59:55;6.20;;;3.83;;
23634;SDS011;11994;51.038;16.974;2022-09-21T02:02:30;6.10;;;3.72;;
23634;SDS011;11994;51.038;16.974;2022-09-21T02:05:22;7.08;;;3.17;;
23634;SDS011;11994;51.038;16.974;2022-09-21T02:07:51;5.75;;;3.10;;
23634;SDS011;11994;51.038;16.974;2022-09-21T02:10:23;6.17;;;3.00;;
23634;SDS011;11994;51.038;16.974;2022-09-21T02:13:01;5.70;;;3.22;;
23634;SDS011;11994;51.038;16.974;2022-09-21T02:18:42;4.92;;;3.30;;
23634;SDS011;11994;51.038;16.974;2022-09-21T02:21:24;7.20;;;3.33;;
23634;SDS011;11994;51.038;16.974;2022-09-21T02:26:44;5.67;;;3.35;;
23634;SDS011;11994;51.038;16.974;2022-09-21T02:29:46;6.53;;;2.98;;
23634;SDS011;11994;51.038;16.974;2022-09-21T02:32:18;5.20;;;3.10;;
23634;SDS011;11994;51.038;16.974;2022-09-21T02:35:01;5.83;;;3.40;;
23634;SDS011;11994;51.038;16.974;2022-09-21T02:42:48;5.42;;;3.75;;
23634;SDS011;11994;51.038;16.974;2022-09-21T02:45:20;6.92;;;2.95;;
23634;SDS011;11994;51.038;16.974;2022-09-21T02:48:38;8.13;;;3.60;;
23634;SDS011;11994;51.038;16.974;2022-09-21T02:50:41;5.00;;;3.02;;
23634;SDS011;11994;51.038;16.974;2022-09-21T02:53:24;6.15;;;3.60;;
23634;SDS011;11994;51.038;16.974;2022-09-21T02:58:18;11.63;;;3.08;;
23634;SDS011;11994;51.038;16.974;2022-09-21T03:00:46;6.40;;;3.30;;
23634;SDS011;11994;51.038;16.974;2022-09-21T03:03:19;5.20;;;3.10;;
23634;SDS011;11994;51.038;16.974;2022-09-21T03:05:47;7.20;;;2.95;;
23634;SDS011;11994;51.038;16.974;2022-09-21T03:08:17;5.08;;;3.12;;
23634;SDS011;11994;51.038;16.974;2022-09-21T03:10:44;5.45;;;3.10;;
23634;SDS011;11994;51.038;16.974;2022-09-21T03:13:13;6.35;;;3.60;;
23634;SDS011;11994;51.038;16.974;2022-09-21T03:15:39;4.35;;;3.20;;
23634;SDS011;11994;51.038;16.974;2022-09-21T03:18:06;6.72;;;3.77;;
23634;SDS011;11994;51.038;16.974;2022-09-21T03:20:35;4.58;;;3.50;;
23634;SDS011;11994;51.038;16.974;2022-09-21T03:23:02;6.15;;;3.40;;
23634;SDS011;11994;51.038;16.974;2022-09-21T03:25:29;6.87;;;3.72;;
23634;SDS011;11994;51.038;16.974;2022-09-21T03:27:55;7.92;;;3.75;;
23634;SDS011;11994;51.038;16.974;2022-09-21T03:30:23;8.78;;;4.12;;
23634;SDS011;11994;51.038;16.974;2022-09-21T03:32:53;5.67;;;3.70;;
23634;SDS011;11994;51.038;16.974;2022-09-21T03:35:20;4.25;;;3.15;;
23634;SDS011;11994;51.038;16.974;2022-09-21T03:37:50;7.20;;;3.40;;
23634;SDS011;11994;51.038;16.974;2022-09-21T03:40:17;6.92;;;3.90;;
23634;SDS011;11994;51.038;16.974;2022-09-21T03:42:43;8.85;;;3.87;;
23634;SDS011;11994;51.038;16.974;2022-09-21T03:45:11;5.47;;;3.72;;
23634;SDS011;11994;51.038;16.974;2022-09-21T03:47:38;8.20;;;3.75;;
23634;SDS011;11994;51.038;16.974;2022-09-21T03:50:05;6.12;;;3.42;;
23634;SDS011;11994;51.038;16.974;2022-09-21T03:52:32;6.35;;;3.80;;
23634;SDS011;11994;51.038;16.974;2022-09-21T03:55:00;5.58;;;3.95;;
23634;SDS011;11994;51.038;16.974;2022-09-21T03:57:28;5.22;;;4.05;;
23634;SDS011;11994;51.038;16.974;2022-09-21T03:59:53;6.22;;;3.92;;
23634;SDS011;11994;51.038;16.974;2022-09-21T04:02:19;5.28;;;3.90;;
23634;SDS011;11994;51.038;16.974;2022-09-21T04:04:46;9.28;;;4.15;;
23634;SDS011;11994;51.038;16.974;2022-09-21T04:07:12;6.20;;;4.70;;
23634;SDS011;11994;51.038;16.974;2022-09-21T04:09:39;6.65;;;4.42;;
23634;SDS011;11994;51.038;16.974;2022-09-21T04:12:06;8.15;;;4.40;;
23634;SDS011;11994;51.038;16.974;2022-09-21T04:14:32;10.08;;;4.65;;
23634;SDS011;11994;51.038;16.974;2022-09-21T04:16:58;8.23;;;4.92;;
23634;SDS011;11994;51.038;16.974;2022-09-21T04:19:24;7.40;;;5.25;;
23634;SDS011;11994;51.038;16.974;2022-09-21T04:21:50;7.12;;;4.67;;
23634;SDS011;11994;51.038;16.974;2022-09-21T04:24:16;5.47;;;3.83;;
23634;SDS011;11994;51.038;16.974;2022-09-21T04:26:45;5.55;;;4.12;;
23634;SDS011;11994;51.038;16.974;2022-09-21T04:29:12;7.70;;;4.17;;
23634;SDS011;11994;51.038;16.974;2022-09-21T04:31:39;9.35;;;4.95;;
23634;SDS011;11994;51.038;16.974;2022-09-21T04:34:05;7.10;;;4.72;;
23634;SDS011;11994;51.038;16.974;2022-09-21T04:36:31;6.87;;;4.60;;
23634;SDS011;11994;51.038;16.974;2022-09-21T04:39:00;7.40;;;4.33;;
23634;SDS011;11994;51.038;16.974;2022-09-21T04:41:26;6.45;;;4.83;;
23634;SDS011;11994;51.038;16.974;2022-09-21T04:43:52;10.08;;;5.00;;
23634;SDS011;11994;51.038;16.974;2022-09-21T04:46:18;7.05;;;5.05;;
23634;SDS011;11994;51.038;16.974;2022-09-21T04:48:45;5.42;;;4.30;;
23634;SDS011;11994;51.038;16.974;2022-09-21T04:51:12;8.98;;;5.20;;
23634;SDS011;11994;51.038;16.974;2022-09-21T04:53:40;8.08;;;5.78;;
23634;SDS011;11994;51.038;16.974;2022-09-21T04:56:08;8.10;;;5.87;;
23634;SDS011;11994;51.038;16.974;2022-09-21T04:58:38;12.20;;;5.92;;
23634;SDS011;11994;51.038;16.974;2022-09-21T05:01:04;10.15;;;6.30;;
23634;SDS011;11994;51.038;16.974;2022-09-21T05:03:31;10.10;;;6.22;;
23634;SDS011;11994;51.038;16.974;2022-09-21T05:05:57;9.55;;;6.35;;
23634;SDS011;11994;51.038;16.974;2022-09-21T05:08:24;9.13;;;7.03;;
23634;SDS011;11994;51.038;16.974;2022-09-21T05:11:11;12.40;;;6.47;;
23634;SDS011;11994;51.038;16.974;2022-09-21T05:13:40;10.13;;;6.53;;
23634;SDS011;11994;51.038;16.974;2022-09-21T05:16:07;9.83;;;6.92;;
23634;SDS011;11994;51.038;16.974;2022-09-21T05:18:34;10.72;;;7.47;;
23634;SDS011;11994;51.038;16.974;2022-09-21T05:21:00;10.15;;;7.62;;
23634;SDS011;11994;51.038;16.974;2022-09-21T05:23:29;10.40;;;7.35;;
23634;SDS011;11994;51.038;16.974;2022-09-21T05:25:56;10.32;;;7.00;;
23634;SDS011;11994;51.038;16.974;2022-09-21T05:28:23;9.80;;;7.87;;
23634;SDS011;11994;51.038;16.974;2022-09-21T05:30:56;11.33;;;7.42;;
23634;SDS011;11994;51.038;16.974;2022-09-21T05:33:39;8.63;;;6.87;;
23634;SDS011;11994;51.038;16.974;2022-09-21T05:36:15;11.50;;;7.03;;
23634;SDS011;11994;51.038;16.974;2022-09-21T05:39:11;10.23;;;6.83;;
23634;SDS011;11994;51.038;16.974;2022-09-21T05:41:37;10.58;;;7.15;;
23634;SDS011;11994;51.038;16.974;2022-09-21T05:44:04;10.43;;;7.50;;
23634;SDS011;11994;51.038;16.974;2022-09-21T05:55:22;10.85;;;7.90;;
23634;SDS011;11994;51.038;16.974;2022-09-21T06:01:43;9.95;;;7.67;;
23634;SDS011;11994;51.038;16.974;2022-09-21T06:04:14;13.00;;;8.03;;
23634;SDS011;11994;51.038;16.974;2022-09-21T06:06:41;11.35;;;7.53;;
23634;SDS011;11994;51.038;16.974;2022-09-21T06:09:07;11.65;;;7.55;;
23634;SDS011;11994;51.038;16.974;2022-09-21T06:11:33;14.63;;;8.20;;
23634;SDS011;11994;51.038;16.974;2022-09-21T06:13:59;12.53;;;7.45;;
23634;SDS011;11994;51.038;16.974;2022-09-21T06:16:35;9.30;;;7.35;;
23634;SDS011;11994;51.038;16.974;2022-09-21T06:19:03;10.45;;;7.42;;
23634;SDS011;11994;51.038;16.974;2022-09-21T06:21:29;10.53;;;8.15;;
23634;SDS011;11994;51.038;16.974;2022-09-21T06:23:55;10.63;;;8.28;;
23634;SDS011;11994;51.038;16.974;2022-09-21T06:26:21;10.70;;;8.38;;
23634;SDS011;11994;51.038;16.974;2022-09-21T06:28:47;10.55;;;7.80;;
23634;SDS011;11994;51.038;16.974;2022-09-21T06:31:13;9.63;;;7.75;;
23634;SDS011;11994;51.038;16.974;2022-09-21T06:33:39;11.68;;;8.08;;
23634;SDS011;11994;51.038;16.974;2022-09-21T06:36:05;10.00;;;8.80;;
23634;SDS011;11994;51.038;16.974;2022-09-21T06:38:31;9.88;;;8.00;;
23634;SDS011;11994;51.038;16.974;2022-09-21T06:41:02;10.05;;;7.10;;
23634;SDS011;11994;51.038;16.974;2022-09-21T06:43:29;8.93;;;8.00;;
23634;SDS011;11994;51.038;16.974;2022-09-21T06:45:57;10.95;;;8.50;;
23634;SDS011;11994;51.038;16.974;2022-09-21T06:48:25;14.80;;;9.63;;
23634;SDS011;11994;51.038;16.974;2022-09-21T06:50:56;11.97;;;10.68;;
23634;SDS011;11994;51.038;16.974;2022-09-21T06:53:26;12.00;;;10.58;;
23634;SDS011;11994;51.038;16.974;2022-09-21T06:55:58;14.28;;;9.65;;
23634;SDS011;11994;51.038;16.974;2022-09-21T06:58:29;13.05;;;9.83;;
23634;SDS011;11994;51.038;16.974;2022-09-21T07:00:57;12.73;;;10.32;;
23634;SDS011;11994;51.038;16.974;2022-09-21T07:03:23;10.35;;;8.20;;
23634;SDS011;11994;51.038;16.974;2022-09-21T07:05:49;13.10;;;8.50;;
23634;SDS011;11994;51.038;16.974;2022-09-21T07:08:15;9.20;;;6.95;;
23634;SDS011;11994;51.038;16.974;2022-09-21T07:10:41;9.45;;;6.80;;
23634;SDS011;11994;51.038;16.974;2022-09-21T07:13:06;8.98;;;6.75;;
23634;SDS011;11994;51.038;16.974;2022-09-21T07:15:33;10.32;;;7.25;;
23634;SDS011;11994;51.038;16.974;2022-09-21T07:17:59;9.63;;;7.00;;
23634;SDS011;11994;51.038;16.974;2022-09-21T07:20:25;8.18;;;6.58;;
23634;SDS011;11994;51.038;16.974;2022-09-21T07:22:51;8.68;;;6.83;;
23634;SDS011;11994;51.038;16.974;2022-09-21T07:25:17;9.80;;;7.33;;
23634;SDS011;11994;51.038;16.974;2022-09-21T07:27:42;8.85;;;6.95;;
23634;SDS011;11994;51.038;16.974;2022-09-21T07:30:08;7.60;;;6.80;;
23634;SDS011;11994;51.038;16.974;2022-09-21T07:32:35;13.25;;;6.80;;
23634;SDS011;11994;51.038;16.974;2022-09-21T07:35:01;8.75;;;6.50;;
23634;SDS011;11994;51.038;16.974;2022-09-21T07:37:30;8.93;;;7.03;;
23634;SDS011;11994;51.038;16.974;2022-09-21T07:39:56;9.83;;;7.12;;
23634;SDS011;11994;51.038;16.974;2022-09-21T07:42:22;9.08;;;7.60;;
23634;SDS011;11994;51.038;16.974;2022-09-21T07:44:49;10.60;;;7.47;;
23634;SDS011;11994;51.038;16.974;2022-09-21T07:47:15;8.08;;;6.30;;
23634;SDS011;11994;51.038;16.974;2022-09-21T07:49:41;8.53;;;6.47;;
23634;SDS011;11994;51.038;16.974;2022-09-21T07:52:07;8.25;;;6.37;;
23634;SDS011;11994;51.038;16.974;2022-09-21T07:54:34;9.15;;;7.17;;
23634;SDS011;11994;51.038;16.974;2022-09-21T07:57:01;8.58;;;6.70;;
23634;SDS011;11994;51.038;16.974;2022-09-21T07:59:35;7.42;;;6.62;;
23634;SDS011;11994;51.038;16.974;2022-09-21T08:02:01;8.53;;;6.03;;
23634;SDS011;11994;51.038;16.974;2022-09-21T08:04:26;8.90;;;6.10;;
23634;SDS011;11994;51.038;16.974;2022-09-21T08:06:52;9.50;;;7.05;;
23634;SDS011;11994;51.038;16.974;2022-09-21T08:09:18;10.28;;;8.08;;
23634;SDS011;11994;51.038;16.974;2022-09-21T08:11:44;9.33;;;7.65;;
23634;SDS011;11994;51.038;16.974;2022-09-21T08:14:11;10.85;;;6.70;;
23634;SDS011;11994;51.038;16.974;2022-09-21T08:16:39;6.10;;;5.25;;
23634;SDS011;11994;51.038;16.974;2022-09-21T08:19:05;7.12;;;5.40;;
23634;SDS011;11994;51.038;16.974;2022-09-21T08:21:31;7.37;;;5.78;;
23634;SDS011;11994;51.038;16.974;2022-09-21T08:23:57;7.08;;;5.75;;
23634;SDS011;11994;51.038;16.974;2022-09-21T08:26:23;6.45;;;5.33;;
23634;SDS011;11994;51.038;16.974;2022-09-21T08:28:50;20.88;;;8.85;;
23634;SDS011;11994;51.038;16.974;2022-09-21T08:31:18;6.28;;;5.40;;
23634;SDS011;11994;51.038;16.974;2022-09-21T08:33:51;8.43;;;5.80;;
23634;SDS011;11994;51.038;16.974;2022-09-21T08:36:15;5.80;;;5.10;;
23634;SDS011;11994;51.038;16.974;2022-09-21T08:38:42;6.20;;;5.30;;
23634;SDS011;11994;51.038;16.974;2022-09-21T08:41:16;8.35;;;5.45;;
23634;SDS011;11994;51.038;16.974;2022-09-21T08:43:56;7.28;;;5.65;;
23634;SDS011;11994;51.038;16.974;2022-09-21T08:46:31;6.97;;;6.12;;
23634;SDS011;11994;51.038;16.974;2022-09-21T08:51:47;7.47;;;5.72;;
23634;SDS011;11994;51.038;16.974;2022-09-21T08:57:12;7.25;;;6.00;;
23634;SDS011;11994;51.038;16.974;2022-09-21T09:05:05;7.42;;;4.80;;
23634;SDS011;11994;51.038;16.974;2022-09-21T09:14:08;6.87;;;5.03;;
23634;SDS011;11994;51.038;16.974;2022-09-21T09:16:45;6.47;;;4.67;;
23634;SDS011;11994;51.038;16.974;2022-09-21T09:22:11;5.20;;;4.30;;
23634;SDS011;11994;51.038;16.974;2022-09-21T09:24:48;6.62;;;4.33;;
23634;SDS011;11994;51.038;16.974;2022-09-21T09:33:16;8.05;;;4.05;;
23634;SDS011;11994;51.038;16.974;2022-09-21T09:38:16;14.70;;;5.35;;
23634;SDS011;11994;51.038;16.974;2022-09-21T09:49:32;6.85;;;4.50;;
23634;SDS011;11994;51.038;16.974;2022-09-21T09:52:16;5.92;;;4.28;;
23634;SDS011;11994;51.038;16.974;2022-09-21T09:54:42;5.37;;;3.37;;
23634;SDS011;11994;51.038;16.974;2022-09-21T09:57:09;4.37;;;3.30;;
23634;SDS011;11994;51.038;16.974;2022-09-21T09:59:43;8.28;;;3.52;;
23634;SDS011;11994;51.038;16.974;2022-09-21T10:10:21;5.33;;;4.05;;
23634;SDS011;11994;51.038;16.974;2022-09-21T10:16:03;9.38;;;3.77;;
23634;SDS011;11994;51.038;16.974;2022-09-21T10:21:26;7.70;;;3.85;;
23634;SDS011;11994;51.038;16.974;2022-09-21T10:24:16;5.65;;;3.40;;
23634;SDS011;11994;51.038;16.974;2022-09-21T10:26:46;7.85;;;4.00;;
23634;SDS011;11994;51.038;16.974;2022-09-21T10:34:58;8.55;;;3.87;;
23634;SDS011;11994;51.038;16.974;2022-09-21T10:37:33;6.25;;;3.30;;
23634;SDS011;11994;51.038;16.974;2022-09-21T10:42:48;5.75;;;3.22;;
23634;SDS011;11994;51.038;16.974;2022-09-21T10:45:17;5.08;;;3.72;;
23634;SDS011;11994;51.038;16.974;2022-09-21T10:50:41;5.05;;;3.30;;
23634;SDS011;11994;51.038;16.974;2022-09-21T10:55:56;3.40;;;2.20;;
23634;SDS011;11994;51.038;16.974;2022-09-21T10:58:30;4.97;;;2.70;;
23634;SDS011;11994;51.038;16.974;2022-09-21T11:01:08;6.50;;;2.72;;
23634;SDS011;11994;51.038;16.974;2022-09-21T11:04:05;3.70;;;2.42;;
23634;SDS011;11994;51.038;16.974;2022-09-21T11:06:46;4.35;;;2.55;;
23634;SDS011;11994;51.038;16.974;2022-09-21T11:09:20;4.83;;;2.72;;
23634;SDS011;11994;51.038;16.974;2022-09-21T11:30:46;2.72;;;1.85;;
23634;SDS011;11994;51.038;16.974;2022-09-21T11:33:36;4.58;;;2.33;;
23634;SDS011;11994;51.038;16.974;2022-09-21T11:39:18;2.75;;;1.60;;
23634;SDS011;11994;51.038;16.974;2022-09-21T11:44:47;4.53;;;1.90;;
23634;SDS011;11994;51.038;16.974;2022-09-21T11:53:06;3.22;;;1.52;;
23634;SDS011;11994;51.038;16.974;2022-09-21T11:59:25;8.13;;;2.10;;
23634;SDS011;11994;51.038;16.974;2022-09-21T12:02:09;3.17;;;1.50;;
23634;SDS011;11994;51.038;16.974;2022-09-21T12:05:23;6.20;;;1.75;;
23634;SDS011;11994;51.038;16.974;2022-09-21T12:19:44;7.95;;;2.15;;
23634;SDS011;11994;51.038;16.974;2022-09-21T12:22:25;6.78;;;2.33;;
23634;SDS011;11994;51.038;16.974;2022-09-21T12:30:58;4.75;;;1.80;;
23634;SDS011;11994;51.038;16.974;2022-09-21T12:33:42;3.05;;;1.60;;
23634;SDS011;11994;51.038;16.974;2022-09-21T12:38:51;6.30;;;1.90;;
23634;SDS011;11994;51.038;16.974;2022-09-21T12:41:43;3.47;;;1.98;;
23634;SDS011;11994;51.038;16.974;2022-09-21T12:47:02;4.75;;;1.55;;
23634;SDS011;11994;51.038;16.974;2022-09-21T12:49:45;4.75;;;1.87;;
23634;SDS011;11994;51.038;16.974;2022-09-21T12:52:18;7.50;;;2.15;;
23634;SDS011;11994;51.038;16.974;2022-09-21T12:54:52;3.85;;;1.52;;
23634;SDS011;11994;51.038;16.974;2022-09-21T12:57:44;7.60;;;2.02;;
23634;SDS011;11994;51.038;16.974;2022-09-21T13:00:44;2.85;;;1.30;;
23634;SDS011;11994;51.038;16.974;2022-09-21T13:03:15;2.27;;;1.20;;
23634;SDS011;11994;51.038;16.974;2022-09-21T13:08:24;4.05;;;2.10;;
23634;SDS011;11994;51.038;16.974;2022-09-21T13:10:55;5.12;;;2.20;;
23634;SDS011;11994;51.038;16.974;2022-09-21T13:13:49;2.85;;;1.57;;
23634;SDS011;11994;51.038;16.974;2022-09-21T13:16:29;3.83;;;1.32;;
23634;SDS011;11994;51.038;16.974;2022-09-21T13:18:59;2.27;;;1.47;;
23634;SDS011;11994;51.038;16.974;2022-09-21T13:21:29;5.37;;;1.60;;
23634;SDS011;11994;51.038;16.974;2022-09-21T13:23:58;2.65;;;1.30;;
23634;SDS011;11994;51.038;16.974;2022-09-21T13:29:05;3.22;;;1.30;;
23634;SDS011;11994;51.038;16.974;2022-09-21T13:31:54;3.02;;;1.17;;
23634;SDS011;11994;51.038;16.974;2022-09-21T13:34:34;10.10;;;1.60;;
23634;SDS011;11994;51.038;16.974;2022-09-21T13:47:48;2.30;;;1.32;;
23634;SDS011;11994;51.038;16.974;2022-09-21T13:53:03;1.67;;;1.22;;
23634;SDS011;11994;51.038;16.974;2022-09-21T13:55:49;2.27;;;1.07;;
23634;SDS011;11994;51.038;16.974;2022-09-21T13:58:25;2.77;;;1.00;;
23634;SDS011;11994;51.038;16.974;2022-09-21T14:00:59;3.05;;;1.50;;
23634;SDS011;11994;51.038;16.974;2022-09-21T14:03:42;3.80;;;1.67;;
23634;SDS011;11994;51.038;16.974;2022-09-21T14:06:19;3.58;;;1.30;;
23634;SDS011;11994;51.038;16.974;2022-09-21T14:08:55;4.87;;;1.27;;
23634;SDS011;11994;51.038;16.974;2022-09-21T14:11:35;3.42;;;1.65;;
23634;SDS011;11994;51.038;16.974;2022-09-21T14:16:52;2.37;;;1.65;;
23634;SDS011;11994;51.038;16.974;2022-09-21T14:24:38;4.78;;;2.70;;
23634;SDS011;11994;51.038;16.974;2022-09-21T14:27:21;6.45;;;2.50;;
23634;SDS011;11994;51.038;16.974;2022-09-21T14:29:57;11.90;;;4.12;;
23634;SDS011;11994;51.038;16.974;2022-09-21T14:32:45;6.22;;;1.72;;
23634;SDS011;11994;51.038;16.974;2022-09-21T14:35:23;5.90;;;2.50;;
23634;SDS011;11994;51.038;16.974;2022-09-21T14:37:57;9.78;;;2.65;;
23634;SDS011;11994;51.038;16.974;2022-09-21T14:40:25;4.03;;;2.27;;
23634;SDS011;11994;51.038;16.974;2022-09-21T14:43:00;5.62;;;2.12;;
23634;SDS011;11994;51.038;16.974;2022-09-21T15:00:21;5.40;;;1.90;;
23634;SDS011;11994;51.038;16.974;2022-09-21T15:05:57;4.75;;;2.52;;
23634;SDS011;11994;51.038;16.974;2022-09-21T15:12:43;5.05;;;3.55;;
23634;SDS011;11994;51.038;16.974;2022-09-21T15:18:19;6.15;;;4.00;;
23634;SDS011;11994;51.038;16.974;2022-09-21T15:20:59;9.78;;;5.92;;
23634;SDS011;11994;51.038;16.974;2022-09-21T15:23:28;10.03;;;5.58;;
23634;SDS011;11994;51.038;16.974;2022-09-21T15:26:04;9.08;;;4.70;;
23634;SDS011;11994;51.038;16.974;2022-09-21T15:30:59;6.30;;;2.55;;
23634;SDS011;11994;51.038;16.974;2022-09-21T15:33:26;3.45;;;2.00;;
23634;SDS011;11994;51.038;16.974;2022-09-21T15:35:52;6.75;;;3.60;;
23634;SDS011;11994;51.038;16.974;2022-09-21T15:38:29;4.25;;;2.60;;
23634;SDS011;11994;51.038;16.974;2022-09-21T15:40:58;4.92;;;2.30;;
23634;SDS011;11994;51.038;16.974;2022-09-21T15:43:24;4.05;;;1.80;;
23634;SDS011;11994;51.038;16.974;2022-09-21T15:48:31;7.42;;;1.90;;
23634;SDS011;11994;51.038;16.974;2022-09-21T15:53:54;3.55;;;1.95;;
23634;SDS011;11994;51.038;16.974;2022-09-21T15:56:26;3.75;;;1.40;;
23634;SDS011;11994;51.038;16.974;2022-09-21T15:58:59;3.10;;;1.60;;
23634;SDS011;11994;51.038;16.974;2022-09-21T16:01:29;3.67;;;1.80;;
23634;SDS011;11994;51.038;16.974;2022-09-21T16:04:07;3.80;;;1.60;;
23634;SDS011;11994;51.038;16.974;2022-09-21T16:06:35;4.55;;;2.00;;
23634;SDS011;11994;51.038;16.974;2022-09-21T16:11:55;3.67;;;2.15;;
23634;SDS011;11994;51.038;16.974;2022-09-21T16:14:21;3.65;;;1.98;;
23634;SDS011;11994;51.038;16.974;2022-09-21T16:22:27;5.53;;;1.60;;
23634;SDS011;11994;51.038;16.974;2022-09-21T16:27:55;2.33;;;1.57;;
23634;SDS011;11994;51.038;16.974;2022-09-21T16:39:01;3.00;;;1.47;;
23634;SDS011;11994;51.038;16.974;2022-09-21T16:41:34;2.30;;;1.22;;
23634;SDS011;11994;51.038;16.974;2022-09-21T16:44:11;3.95;;;1.40;;
23634;SDS011;11994;51.038;16.974;2022-09-21T16:46:50;2.37;;;1.10;;
23634;SDS011;11994;51.038;16.974;2022-09-21T16:49:21;4.47;;;1.60;;
23634;SDS011;11994;51.038;16.974;2022-09-21T16:51:50;4.42;;;1.50;;
23634;SDS011;11994;51.038;16.974;2022-09-21T16:54:17;4.92;;;1.40;;
23634;SDS011;11994;51.038;16.974;2022-09-21T16:56:45;4.40;;;1.80;;
23634;SDS011;11994;51.038;16.974;2022-09-21T16:59:13;3.75;;;1.50;;
23634;SDS011;11994;51.038;16.974;2022-09-21T17:01:43;3.60;;;1.45;;
23634;SDS011;11994;51.038;16.974;2022-09-21T17:04:10;3.45;;;1.50;;
23634;SDS011;11994;51.038;16.974;2022-09-21T17:06:37;3.35;;;1.35;;
23634;SDS011;11994;51.038;16.974;2022-09-21T17:09:17;2.58;;;1.32;;
23634;SDS011;11994;51.038;16.974;2022-09-21T17:11:46;4.92;;;1.42;;
23634;SDS011;11994;51.038;16.974;2022-09-21T17:14:14;2.70;;;1.50;;
23634;SDS011;11994;51.038;16.974;2022-09-21T17:16:41;4.90;;;1.82;;
23634;SDS011;11994;51.038;16.974;2022-09-21T17:19:10;5.53;;;2.30;;
23634;SDS011;11994;51.038;16.974;2022-09-21T17:21:36;6.10;;;2.98;;
23634;SDS011;11994;51.038;16.974;2022-09-21T17:24:02;5.87;;;3.02;;
23634;SDS011;11994;51.038;16.974;2022-09-21T17:26:29;6.65;;;3.50;;
23634;SDS011;11994;51.038;16.974;2022-09-21T17:28:56;6.37;;;3.65;;
23634;SDS011;11994;51.038;16.974;2022-09-21T17:31:22;5.05;;;3.20;;
23634;SDS011;11994;51.038;16.974;2022-09-21T17:33:49;5.33;;;3.55;;
23634;SDS011;11994;51.038;16.974;2022-09-21T17:36:15;7.37;;;3.83;;
23634;SDS011;11994;51.038;16.974;2022-09-21T17:38:43;6.80;;;4.22;;
23634;SDS011;11994;51.038;16.974;2022-09-21T17:43:46;6.78;;;3.40;;
23634;SDS011;11994;51.038;16.974;2022-09-21T17:46:21;6.80;;;4.83;;
23634;SDS011;11994;51.038;16.974;2022-09-21T17:48:49;13.48;;;5.42;;
23634;SDS011;11994;51.038;16.974;2022-09-21T17:51:16;8.38;;;3.83;;
23634;SDS011;11994;51.038;16.974;2022-09-21T17:53:44;6.12;;;3.35;;
23634;SDS011;11994;51.038;16.974;2022-09-21T17:59:33;7.95;;;4.97;;
23634;SDS011;11994;51.038;16.974;2022-09-21T18:02:10;7.75;;;5.25;;
23634;SDS011;11994;51.038;16.974;2022-09-21T18:04:39;11.68;;;8.18;;
23634;SDS011;11994;51.038;16.974;2022-09-21T18:07:06;11.38;;;7.65;;
23634;SDS011;11994;51.038;16.974;2022-09-21T18:09:34;14.53;;;10.18;;
23634;SDS011;11994;51.038;16.974;2022-09-21T18:15:18;15.45;;;8.55;;
23634;SDS011;11994;51.038;16.974;2022-09-21T18:23:24;8.45;;;4.97;;
23634;SDS011;11994;51.038;16.974;2022-09-21T18:25:58;6.00;;;4.22;;
23634;SDS011;11994;51.038;16.974;2022-09-21T18:28:34;7.90;;;4.10;;
23634;SDS011;11994;51.038;16.974;2022-09-21T18:37:31;9.60;;;6.08;;
23634;SDS011;11994;51.038;16.974;2022-09-21T18:43:53;8.33;;;6.00;;
23634;SDS011;11994;51.038;16.974;2022-09-21T18:45:47;7.53;;;5.22;;
23634;SDS011;11994;51.038;16.974;2022-09-21T18:54:01;6.95;;;4.17;;
23634;SDS011;11994;51.038;16.974;2022-09-21T18:56:29;7.80;;;4.45;;
23634;SDS011;11994;51.038;16.974;2022-09-21T18:59:01;8.23;;;4.72;;
23634;SDS011;11994;51.038;16.974;2022-09-21T19:01:28;9.33;;;4.80;;
23634;SDS011;11994;51.038;16.974;2022-09-21T19:03:57;7.17;;;4.50;;
23634;SDS011;11994;51.038;16.974;2022-09-21T19:12:19;6.55;;;3.62;;
23634;SDS011;11994;51.038;16.974;2022-09-21T19:20:58;4.58;;;2.52;;
23634;SDS011;11994;51.038;16.974;2022-09-21T19:23:49;5.00;;;2.55;;
23634;SDS011;11994;51.038;16.974;2022-09-21T19:27:14;4.85;;;2.67;;
23634;SDS011;11994;51.038;16.974;2022-09-21T19:31:52;8.48;;;3.90;;
23634;SDS011;11994;51.038;16.974;2022-09-21T19:34:18;4.95;;;3.05;;
23634;SDS011;11994;51.038;16.974;2022-09-21T19:36:46;5.35;;;3.10;;
23634;SDS011;11994;51.038;16.974;2022-09-21T19:39:12;5.58;;;3.20;;
23634;SDS011;11994;51.038;16.974;2022-09-21T19:49:57;5.35;;;2.98;;
23634;SDS011;11994;51.038;16.974;2022-09-21T19:52:41;5.83;;;3.20;;
23634;SDS011;11994;51.038;16.974;2022-09-21T19:55:12;5.47;;;3.60;;